Аэропорт: Пулково. Санкт-Петербург

ICAO: ULLI

METAR:
2021-07-28 12:30:00
ULLI 281230Z 31006MPS 9999 FEW028CB SCT045 25/17 Q1008 R28L/120060 R28R/220050 NOSIG
METAR:
2021-07-28 10:53:00
TAF ULLI 281053Z 2812/2912 17003G08MPS 9999 BKN020 TEMPO 2812/2821 15007G12MPS -TSRA BKN020CB FM282200 23003MPS 6000 FEW011 BKN016 TEMPO 2822/2904 2000 MIFG BR BKN011 BECMG 2906/2909 9999 -SHRA BKN015CB